createdAt,value
2023-03-02T00:02:24.574Z,12.48
2023-03-02T00:04:58.483Z,12.77
2023-03-02T00:07:32.786Z,12.07
2023-03-02T00:12:32.416Z,12.75
2023-03-02T00:14:59.262Z,13.77
2023-03-02T00:17:29.039Z,12.05
2023-03-02T00:20:11.533Z,13.77
2023-03-02T00:22:39.787Z,11.98
2023-03-02T00:25:07.448Z,14.88
2023-03-02T00:27:34.593Z,12.25
2023-03-02T00:30:01.686Z,13.18
2023-03-02T00:32:28.594Z,12.50
2023-03-02T00:34:55.530Z,12.98
2023-03-02T00:37:22.362Z,12.27
2023-03-02T00:39:51.965Z,14.77
2023-03-02T00:42:18.982Z,13.05
2023-03-02T00:44:45.731Z,13.43
2023-03-02T00:47:12.830Z,12.18
2023-03-02T00:49:39.666Z,13.18
2023-03-02T00:52:06.733Z,11.57
2023-03-02T00:54:33.698Z,13.98
2023-03-02T00:57:00.492Z,12.18
2023-03-02T00:59:27.506Z,11.50
2023-03-02T01:01:59.053Z,13.80
2023-03-02T01:04:29.876Z,11.57
2023-03-02T01:07:02.100Z,13.20
2023-03-02T01:09:30.043Z,13.05
2023-03-02T01:11:57.088Z,12.07
2023-03-02T01:14:24.900Z,12.00
2023-03-02T01:16:51.981Z,11.95
2023-03-02T01:19:19.169Z,13.45
2023-03-02T01:21:46.060Z,11.60
2023-03-02T01:24:12.974Z,11.75
2023-03-02T01:26:39.821Z,11.95
2023-03-02T01:29:07.006Z,11.68
2023-03-02T01:31:33.992Z,12.32
2023-03-02T01:34:00.824Z,12.43
2023-03-02T01:36:27.693Z,12.18
2023-03-02T01:38:54.824Z,11.73
2023-03-02T01:41:21.708Z,11.15
2023-03-02T01:43:48.595Z,12.27
2023-03-02T01:46:23.522Z,10.63
2023-03-02T01:49:06.894Z,12.45
2023-03-02T01:51:42.150Z,11.70
2023-03-02T01:54:17.146Z,11.18
2023-03-02T01:56:45.913Z,11.02
2023-03-02T01:59:16.666Z,10.35
2023-03-02T02:01:47.112Z,11.50
2023-03-02T02:04:14.742Z,11.43
2023-03-02T02:06:48.109Z,11.23
2023-03-02T02:09:17.970Z,11.57
2023-03-02T02:11:44.902Z,11.73
2023-03-02T02:14:12.353Z,10.80
2023-03-02T02:16:40.402Z,11.52
2023-03-02T02:19:40.681Z,11.70
2023-03-02T02:22:10.642Z,12.18
2023-03-02T02:24:52.992Z,11.07
2023-03-02T02:27:19.843Z,12.75
2023-03-02T02:29:50.953Z,10.88
2023-03-02T02:32:26.599Z,11.80
2023-03-02T02:35:18.815Z,11.95
2023-03-02T02:37:51.390Z,10.07
2023-03-02T02:40:38.333Z,11.13
2023-03-02T02:43:06.408Z,10.10
2023-03-02T02:45:33.905Z,10.63
2023-03-02T02:48:00.854Z,10.60
2023-03-02T02:50:34.386Z,10.43
2023-03-02T02:53:05.537Z,8.13
2023-03-02T02:55:33.963Z,10.98
2023-03-02T02:58:10.055Z,9.38
2023-03-02T03:00:38.418Z,10.88
2023-03-02T03:03:29.301Z,11.95
2023-03-02T03:05:58.424Z,10.63
2023-03-02T03:08:43.997Z,10.07
2023-03-02T03:11:13.610Z,10.73
2023-03-02T03:13:43.047Z,10.52
2023-03-02T03:16:14.105Z,9.93
2023-03-02T03:18:44.797Z,10.20
2023-03-02T03:21:11.599Z,11.48
2023-03-02T03:23:38.649Z,11.23
2023-03-02T03:26:06.724Z,10.98
2023-03-02T03:28:34.161Z,10.25
2023-03-02T03:31:01.167Z,10.23
2023-03-02T03:33:28.349Z,11.88
2023-03-02T03:35:55.288Z,10.07
2023-03-02T03:38:22.156Z,10.75
2023-03-02T03:40:48.953Z,11.15
2023-03-02T03:43:16.483Z,10.32
2023-03-02T03:45:43.390Z,10.05
2023-03-02T03:48:10.263Z,10.27
2023-03-02T03:50:37.138Z,10.20
2023-03-02T03:53:04.147Z,10.77
2023-03-02T03:55:31.388Z,9.18
2023-03-02T03:57:58.264Z,10.30
2023-03-02T04:00:25.261Z,9.93
2023-03-02T04:02:52.175Z,10.43
2023-03-02T04:05:19.128Z,9.07
2023-03-02T04:07:46.046Z,10.80
2023-03-02T04:10:12.886Z,10.52
2023-03-02T04:12:42.406Z,10.60
2023-03-02T04:15:12.916Z,11.02
2023-03-02T04:17:39.727Z,10.38
2023-03-02T04:20:10.531Z,11.55
2023-03-02T04:22:37.329Z,10.18
2023-03-02T04:25:05.201Z,11.68
2023-03-02T04:27:32.089Z,10.00
2023-03-02T04:29:58.913Z,11.93
2023-03-02T04:32:25.763Z,11.43
2023-03-02T04:34:52.649Z,11.98
2023-03-02T04:37:21.001Z,11.13
2023-03-02T04:39:51.212Z,13.13
2023-03-02T04:42:19.589Z,13.23
2023-03-02T04:44:46.561Z,12.75
2023-03-02T04:47:13.511Z,12.15
2023-03-02T04:49:40.517Z,11.00
2023-03-02T04:52:07.335Z,10.65
2023-03-02T04:54:34.338Z,13.52
2023-03-02T04:57:01.124Z,11.88
2023-03-02T04:59:29.414Z,12.73
2023-03-02T05:01:59.275Z,12.50
2023-03-02T05:04:27.669Z,12.32
2023-03-02T05:06:54.952Z,14.13
2023-03-02T05:09:27.194Z,11.85
2023-03-02T05:11:58.949Z,12.50
2023-03-02T05:14:26.380Z,11.30
2023-03-02T05:16:53.504Z,13.60
2023-03-02T05:19:20.359Z,12.90
2023-03-02T05:21:47.158Z,11.98
2023-03-02T05:24:14.112Z,11.95
2023-03-02T05:26:41.504Z,11.82
2023-03-02T05:29:08.795Z,11.60
2023-03-02T05:31:46.115Z,13.20
2023-03-02T05:34:16.417Z,14.32
2023-03-02T05:36:44.113Z,11.68
2023-03-02T05:39:11.347Z,12.10
2023-03-02T05:41:39.033Z,12.93
2023-03-02T05:44:09.441Z,11.02
2023-03-02T05:46:37.023Z,10.85
2023-03-02T05:49:04.028Z,13.70
2023-03-02T05:51:30.879Z,11.82
2023-03-02T05:53:57.750Z,11.73
2023-03-02T05:56:24.602Z,11.07
2023-03-02T05:58:51.413Z,10.82
2023-03-02T06:01:18.220Z,10.98
2023-03-02T06:03:45.064Z,12.23
2023-03-02T06:06:15.265Z,11.23
2023-03-02T06:08:43.412Z,12.48
2023-03-02T06:11:11.131Z,11.77
2023-03-02T06:13:38.438Z,12.75
2023-03-02T06:16:05.675Z,11.80
2023-03-02T06:18:33.154Z,13.63
2023-03-02T06:21:00.050Z,12.82
2023-03-02T06:23:27.047Z,14.15
2023-03-02T06:25:54.099Z,12.60
2023-03-02T06:28:21.948Z,12.85
2023-03-02T06:30:49.883Z,13.38
2023-03-02T06:33:21.469Z,11.90
2023-03-02T06:35:49.588Z,12.15
2023-03-02T06:38:16.606Z,10.70
2023-03-02T06:40:43.811Z,10.45
2023-03-02T06:43:10.959Z,10.95
2023-03-02T06:45:37.928Z,11.27
2023-03-02T06:48:05.611Z,10.57
2023-03-02T06:50:32.994Z,10.90
2023-03-02T06:52:59.853Z,10.55
2023-03-02T06:55:26.731Z,11.13
2023-03-02T06:57:53.711Z,10.57
2023-03-02T07:00:28.247Z,9.90
2023-03-02T07:02:56.190Z,10.00
2023-03-02T07:05:24.567Z,11.10
2023-03-02T07:07:51.804Z,11.48
2023-03-02T07:10:18.827Z,11.75
2023-03-02T07:12:45.818Z,10.57
2023-03-02T07:15:14.301Z,11.48
2023-03-02T07:17:43.755Z,11.68
2023-03-02T07:20:13.752Z,11.43
2023-03-02T07:22:41.398Z,9.73
2023-03-02T07:25:09.952Z,10.15
2023-03-02T07:27:37.631Z,11.70
2023-03-02T07:30:05.981Z,12.02
2023-03-02T07:32:32.852Z,10.57
2023-03-02T07:34:59.967Z,10.80
2023-03-02T07:37:26.734Z,10.70
2023-03-02T07:39:53.585Z,10.60
2023-03-02T07:42:20.468Z,10.43
2023-03-02T07:44:47.819Z,11.23
2023-03-02T07:47:14.677Z,10.57
2023-03-02T07:49:41.538Z,11.25
2023-03-02T07:52:08.432Z,10.48
2023-03-02T07:54:35.638Z,10.85
2023-03-02T07:57:02.706Z,9.07
2023-03-02T07:59:29.580Z,9.60
2023-03-02T08:01:57.602Z,9.75
2023-03-02T08:04:25.284Z,10.30
2023-03-02T08:06:52.370Z,9.18
2023-03-02T08:09:19.250Z,9.18
2023-03-02T08:11:47.780Z,9.95
2023-03-02T08:14:14.683Z,9.50
2023-03-02T08:16:41.831Z,9.85
2023-03-02T08:19:08.928Z,9.60
2023-03-02T08:21:35.879Z,10.05
2023-03-02T08:24:03.019Z,9.57
2023-03-02T08:26:29.933Z,9.32
2023-03-02T08:28:56.840Z,8.50
2023-03-02T08:31:23.680Z,9.30
2023-03-02T08:33:50.717Z,9.52
2023-03-02T08:36:19.753Z,9.25
2023-03-02T08:38:47.978Z,9.52
2023-03-02T08:41:18.616Z,9.05
2023-03-02T08:43:45.874Z,9.52
2023-03-02T08:46:15.325Z,10.02
2023-03-02T08:48:42.320Z,10.30
2023-03-02T08:51:15.327Z,10.10
2023-03-02T08:53:45.300Z,8.88
2023-03-02T08:56:16.120Z,9.80
2023-03-02T08:58:43.133Z,8.82
2023-03-02T09:01:15.176Z,8.80
2023-03-02T09:03:42.269Z,8.55
2023-03-02T09:06:09.378Z,9.70
2023-03-02T09:08:36.354Z,8.88
2023-03-02T09:11:03.277Z,8.63
2023-03-02T09:13:30.094Z,9.32
2023-03-02T09:15:56.946Z,7.68
2023-03-02T09:18:23.865Z,9.60
2023-03-02T09:20:52.458Z,8.65
2023-03-02T09:23:20.666Z,8.98
2023-03-02T09:25:48.830Z,9.27
2023-03-02T09:28:17.005Z,8.27
2023-03-02T09:30:52.728Z,7.60
2023-03-02T09:33:20.564Z,9.35
2023-03-02T09:35:47.750Z,7.95
2023-03-02T09:38:18.247Z,7.75
2023-03-02T09:40:58.408Z,9.38
2023-03-02T09:43:35.212Z,8.82
2023-03-02T09:46:31.405Z,7.85
2023-03-02T09:49:17.271Z,8.95
2023-03-02T09:51:58.612Z,8.52
2023-03-02T09:54:25.658Z,8.00
2023-03-02T09:56:58.911Z,9.07
2023-03-02T09:59:41.551Z,9.05
2023-03-02T10:02:40.558Z,7.82
2023-03-02T10:05:16.780Z,7.93
2023-03-02T10:07:44.800Z,7.28
2023-03-02T10:10:31.945Z,8.98
2023-03-02T10:13:21.471Z,8.23
2023-03-02T10:16:09.625Z,8.45
2023-03-02T10:18:51.204Z,8.35
2023-03-02T10:21:37.490Z,8.60
2023-03-02T10:24:16.843Z,8.57
2023-03-02T10:26:46.698Z,7.30
2023-03-02T10:29:39.376Z,8.23
2023-03-02T10:32:15.517Z,8.02
2023-03-02T10:34:42.623Z,8.15
2023-03-02T10:37:15.908Z,8.82
2023-03-02T10:39:43.063Z,8.40
2023-03-02T10:42:24.386Z,8.43
2023-03-02T10:44:55.982Z,7.63
2023-03-02T10:47:26.307Z,8.82
2023-03-02T10:49:54.768Z,8.18
2023-03-02T10:52:24.311Z,7.50
2023-03-02T10:55:02.688Z,7.88
2023-03-02T10:57:35.782Z,7.72
2023-03-02T11:00:21.941Z,7.45
2023-03-02T11:02:57.993Z,7.60
2023-03-02T11:05:34.253Z,7.13
2023-03-02T11:08:08.525Z,7.50
2023-03-02T11:13:38.716Z,7.35
2023-03-02T11:16:24.439Z,7.53
2023-03-02T11:18:57.465Z,7.70
2023-03-02T11:21:29.437Z,7.60
2023-03-02T11:24:19.011Z,8.50
2023-03-02T11:27:07.177Z,8.80
2023-03-02T11:29:53.244Z,7.65
2023-03-02T11:32:34.305Z,9.00
2023-03-02T11:35:10.672Z,8.43
2023-03-02T11:37:46.468Z,8.13
2023-03-02T11:40:18.857Z,8.73
2023-03-02T11:42:46.880Z,10.25
2023-03-02T11:45:13.672Z,9.20
2023-03-02T11:48:03.464Z,9.93
2023-03-02T11:50:34.590Z,8.68
2023-03-02T11:53:14.369Z,9.30
2023-03-02T11:55:45.747Z,9.48
2023-03-02T11:58:22.116Z,8.38
2023-03-02T12:00:49.895Z,8.25
2023-03-02T12:03:16.716Z,8.23
2023-03-02T12:05:51.543Z,8.98
2023-03-02T12:08:21.487Z,8.40
2023-03-02T12:10:59.672Z,6.43
2023-03-02T12:13:36.402Z,8.50
2023-03-02T12:16:22.706Z,8.57
2023-03-02T12:18:53.915Z,7.22
2023-03-02T12:21:23.050Z,9.00
2023-03-02T12:23:50.000Z,7.93
2023-03-02T12:26:19.619Z,8.02
2023-03-02T12:29:21.601Z,8.70
2023-03-02T12:31:52.383Z,7.82
2023-03-02T12:34:22.244Z,6.75
2023-03-02T12:36:58.603Z,7.28
2023-03-02T12:39:49.139Z,7.88
2023-03-02T12:42:42.866Z,7.18
2023-03-02T12:45:40.528Z,7.70
2023-03-02T12:48:44.967Z,8.38
2023-03-02T12:51:22.372Z,7.60
2023-03-02T12:54:01.322Z,8.63
2023-03-02T12:56:28.350Z,7.97
2023-03-02T12:58:55.294Z,8.68
2023-03-02T13:01:25.611Z,7.68
2023-03-02T13:03:53.858Z,8.27
2023-03-02T13:06:23.118Z,7.28
2023-03-02T13:08:58.340Z,8.93
2023-03-02T13:11:36.297Z,7.60
2023-03-02T13:14:18.929Z,7.70
2023-03-02T13:17:04.412Z,8.77
2023-03-02T13:19:32.243Z,8.13
2023-03-02T13:22:00.265Z,7.00
2023-03-02T13:24:44.906Z,6.95
2023-03-02T13:27:23.419Z,8.00
2023-03-02T13:29:52.764Z,8.30
2023-03-02T13:32:24.600Z,7.72
2023-03-02T13:34:57.974Z,7.45
2023-03-02T13:37:43.756Z,8.02
2023-03-02T13:40:22.967Z,8.13
2023-03-02T13:42:49.901Z,8.30
2023-03-02T13:45:27.249Z,7.53
2023-03-02T13:47:55.926Z,7.53
2023-03-02T13:50:25.445Z,6.97
2023-03-02T13:52:55.325Z,8.00
2023-03-02T13:55:23.299Z,7.88
2023-03-02T13:57:52.930Z,8.18
2023-03-02T14:00:22.851Z,7.93
2023-03-02T14:02:50.546Z,7.22
2023-03-02T14:05:33.005Z,7.88
2023-03-02T14:08:01.145Z,6.60
2023-03-02T14:10:28.481Z,6.78
2023-03-02T14:13:13.267Z,6.95
2023-03-02T14:18:39.360Z,7.15
2023-03-02T14:21:26.764Z,7.18
2023-03-02T14:23:54.490Z,6.80
2023-03-02T14:26:44.050Z,7.30
2023-03-02T14:29:31.969Z,7.60
2023-03-02T14:32:01.998Z,7.63
2023-03-02T14:34:28.980Z,8.32
2023-03-02T14:36:59.195Z,7.53
2023-03-02T14:39:25.944Z,7.10
2023-03-02T14:41:54.724Z,6.70
2023-03-02T14:44:22.371Z,7.45
2023-03-02T14:46:49.327Z,6.05
2023-03-02T14:49:16.251Z,7.32
2023-03-02T14:51:45.073Z,7.15
2023-03-02T14:54:17.366Z,7.07
2023-03-02T14:56:44.486Z,6.93
2023-03-02T14:59:14.322Z,6.28
2023-03-02T15:01:44.448Z,8.13
2023-03-02T15:04:11.580Z,6.80
2023-03-02T15:06:40.666Z,6.32
2023-03-02T15:09:08.479Z,7.30
2023-03-02T15:11:35.748Z,6.95
2023-03-02T15:14:03.013Z,7.18
2023-03-02T15:16:29.993Z,6.80
2023-03-02T15:18:58.809Z,6.65
2023-03-02T15:21:26.972Z,6.80
2023-03-02T15:23:54.092Z,6.65
2023-03-02T15:26:20.943Z,7.63
2023-03-02T15:28:51.054Z,7.28
2023-03-02T15:31:18.748Z,6.50
2023-03-02T15:33:46.251Z,6.90
2023-03-02T15:36:14.455Z,5.70
2023-03-02T15:38:41.670Z,6.68
2023-03-02T15:41:12.265Z,5.80
2023-03-02T15:43:39.570Z,5.82
2023-03-02T15:46:09.289Z,5.97
2023-03-02T15:48:37.010Z,5.65
2023-03-02T15:51:06.556Z,6.18
2023-03-02T15:53:37.864Z,6.60
2023-03-02T15:56:10.867Z,5.82
2023-03-02T15:58:37.809Z,6.68
2023-03-02T16:01:11.694Z,5.15
2023-03-02T16:03:38.896Z,5.85
2023-03-02T16:06:07.273Z,6.35
2023-03-02T16:08:34.711Z,5.07
2023-03-02T16:11:04.251Z,5.05
2023-03-02T16:13:31.295Z,6.18
2023-03-02T16:16:02.139Z,6.28
2023-03-02T16:18:29.083Z,5.45
2023-03-02T16:20:56.045Z,5.53
2023-03-02T16:23:23.339Z,4.82
2023-03-02T16:25:50.875Z,4.85
2023-03-02T16:28:19.034Z,4.07
2023-03-02T16:30:46.551Z,4.15
2023-03-02T16:33:17.221Z,4.65
2023-03-02T16:35:44.643Z,4.30
2023-03-02T16:38:11.484Z,4.40
2023-03-02T16:40:40.534Z,3.95
2023-03-02T16:43:10.503Z,3.88
2023-03-02T16:45:37.981Z,3.00
2023-03-02T16:48:06.297Z,3.92
2023-03-02T16:50:33.676Z,4.10
2023-03-02T16:53:00.638Z,4.07
2023-03-02T16:55:27.622Z,4.70
2023-03-02T16:57:54.610Z,4.80
2023-03-02T17:00:22.904Z,4.65
2023-03-02T17:02:51.205Z,4.25
2023-03-02T17:05:20.154Z,4.43
2023-03-02T17:07:47.860Z,4.40
2023-03-02T17:10:19.819Z,4.63
2023-03-02T17:12:46.931Z,4.70
2023-03-02T17:15:16.875Z,4.38
2023-03-02T17:17:43.860Z,4.15
2023-03-02T17:20:12.618Z,4.07
2023-03-02T17:22:39.793Z,4.70
2023-03-02T17:25:07.222Z,4.97
2023-03-02T17:27:34.160Z,4.00
2023-03-02T17:30:01.150Z,4.28
2023-03-02T17:32:28.057Z,4.90
2023-03-02T17:34:55.145Z,4.72
2023-03-02T17:37:22.854Z,3.83
2023-03-02T17:39:50.964Z,4.40
2023-03-02T17:42:18.227Z,5.40
2023-03-02T17:44:45.084Z,5.60
2023-03-02T17:47:15.014Z,4.50
2023-03-02T17:49:45.375Z,4.95
2023-03-02T17:52:13.448Z,4.68
2023-03-02T17:54:40.380Z,5.50
2023-03-02T17:57:07.957Z,4.75
2023-03-02T17:59:35.160Z,5.13
2023-03-02T18:02:02.056Z,5.50
2023-03-02T18:04:29.226Z,5.47
2023-03-02T18:06:56.295Z,5.68
2023-03-02T18:09:23.289Z,4.35
2023-03-02T18:11:50.135Z,4.88
2023-03-02T18:14:19.769Z,5.18
2023-03-02T18:16:47.112Z,5.28
2023-03-02T18:19:14.043Z,5.43
2023-03-02T18:21:41.846Z,5.65
2023-03-02T18:24:09.729Z,5.40
2023-03-02T18:26:37.327Z,4.75
2023-03-02T18:29:04.965Z,4.40
2023-03-02T18:31:34.041Z,5.28
2023-03-02T18:34:01.806Z,5.05
2023-03-02T18:36:29.026Z,5.25
2023-03-02T18:38:56.037Z,4.80
2023-03-02T18:41:24.462Z,4.80
2023-03-02T18:43:51.815Z,5.25
2023-03-02T18:46:22.676Z,4.88
2023-03-02T18:48:50.622Z,4.60
2023-03-02T18:51:22.023Z,5.40
2023-03-02T18:53:49.558Z,4.97
2023-03-02T18:56:16.841Z,4.72
2023-03-02T18:58:44.446Z,5.10
2023-03-02T19:01:11.768Z,4.97
2023-03-02T19:03:39.096Z,4.43
2023-03-02T19:06:08.146Z,4.60
2023-03-02T19:08:36.121Z,6.82
2023-03-02T19:11:04.882Z,4.97
2023-03-02T19:13:31.874Z,4.18
2023-03-02T19:16:00.676Z,5.97
2023-03-02T19:18:27.619Z,4.13
2023-03-02T19:20:54.865Z,4.55
2023-03-02T19:23:22.040Z,4.03
2023-03-02T19:25:48.908Z,4.95
2023-03-02T19:28:16.379Z,4.93
2023-03-02T19:30:43.260Z,4.78
2023-03-02T19:33:10.236Z,5.05
2023-03-02T19:35:37.858Z,4.53
2023-03-02T19:38:06.086Z,5.05
2023-03-02T19:40:34.526Z,4.75
2023-03-02T19:43:02.558Z,4.90
2023-03-02T19:45:32.531Z,4.55
2023-03-02T19:48:00.727Z,5.25
2023-03-02T19:50:28.530Z,4.93
2023-03-02T19:52:56.366Z,5.43
2023-03-02T19:55:24.953Z,5.25
2023-03-02T19:57:59.482Z,6.05
2023-03-02T20:00:28.961Z,5.55
2023-03-02T20:02:56.473Z,5.32
2023-03-02T20:05:25.105Z,5.75
2023-03-02T20:07:52.076Z,6.32
2023-03-02T20:10:32.313Z,5.45
2023-03-02T20:13:00.684Z,7.18
2023-03-02T20:15:29.949Z,5.70
2023-03-02T20:17:58.361Z,5.82
2023-03-02T20:20:28.020Z,7.13
2023-03-02T20:22:55.139Z,5.85
2023-03-02T20:25:22.050Z,5.25
2023-03-02T20:27:51.835Z,6.30
2023-03-02T20:30:30.145Z,6.97
2023-03-02T20:32:58.262Z,7.07
2023-03-02T20:35:27.519Z,6.60
2023-03-02T20:37:57.019Z,6.70
2023-03-02T20:40:25.122Z,7.63
2023-03-02T20:42:52.543Z,6.03
2023-03-02T20:45:19.619Z,8.00
2023-03-02T20:47:47.393Z,7.43
2023-03-02T20:50:20.246Z,7.05
2023-03-02T20:52:47.442Z,5.78
2023-03-02T20:55:14.491Z,5.63
2023-03-02T20:57:41.552Z,7.00
2023-03-02T21:00:11.913Z,8.30
2023-03-02T21:02:38.753Z,6.68
2023-03-02T21:05:06.219Z,7.03
2023-03-02T21:07:35.925Z,7.53
2023-03-02T21:10:06.425Z,7.07
2023-03-02T21:12:35.872Z,7.55
2023-03-02T21:15:03.390Z,6.88
2023-03-02T21:17:31.485Z,5.45
2023-03-02T21:19:58.462Z,6.47
2023-03-02T21:22:25.523Z,6.65
2023-03-02T21:24:55.692Z,7.60
2023-03-02T21:27:22.699Z,6.25
2023-03-02T21:29:49.875Z,6.20
2023-03-02T21:32:16.846Z,7.30
2023-03-02T21:34:44.895Z,6.68
2023-03-02T21:37:11.823Z,7.30
2023-03-02T21:39:38.674Z,6.72
2023-03-02T21:42:05.679Z,8.50
2023-03-02T21:44:32.499Z,7.05
2023-03-02T21:46:59.372Z,7.65
2023-03-02T21:49:26.311Z,8.38
2023-03-02T21:51:53.174Z,8.30
2023-03-02T21:54:20.339Z,8.90
2023-03-02T21:56:47.312Z,8.48
2023-03-02T21:59:14.222Z,8.75
2023-03-02T22:01:44.198Z,9.90
2023-03-02T22:04:11.131Z,9.40
2023-03-02T22:06:38.396Z,9.18
2023-03-02T22:09:05.374Z,9.63
2023-03-02T22:11:37.193Z,10.65
2023-03-02T22:14:12.228Z,10.05
2023-03-02T22:16:41.657Z,10.65
2023-03-02T22:19:32.543Z,10.43
2023-03-02T22:22:03.211Z,10.98
2023-03-02T22:24:31.882Z,9.77
2023-03-02T22:27:01.899Z,11.57
2023-03-02T22:29:43.870Z,9.23
2023-03-02T22:32:17.022Z,11.02
2023-03-02T22:34:45.142Z,11.50
2023-03-02T22:37:19.472Z,10.45
2023-03-02T22:39:47.697Z,9.73
2023-03-02T22:42:20.923Z,10.52
2023-03-02T22:45:13.164Z,10.30
2023-03-02T22:47:40.692Z,9.85
2023-03-02T22:50:22.623Z,11.20
2023-03-02T22:52:49.812Z,11.27
2023-03-02T22:55:42.929Z,11.02
2023-03-02T22:58:28.534Z,10.98
2023-03-02T23:00:57.276Z,11.63
2023-03-02T23:03:44.966Z,10.85
2023-03-02T23:06:38.488Z,9.27
2023-03-02T23:09:06.759Z,9.68
2023-03-02T23:11:39.746Z,10.13
2023-03-02T23:14:25.503Z,9.13
2023-03-02T23:16:56.854Z,8.52
2023-03-02T23:19:27.396Z,8.48
2023-03-02T23:21:54.708Z,7.20
2023-03-02T23:24:22.186Z,8.27
2023-03-02T23:26:51.008Z,7.60
2023-03-02T23:29:19.777Z,7.68
2023-03-02T23:31:47.275Z,6.63
2023-03-02T23:34:14.421Z,8.07
2023-03-02T23:36:42.058Z,7.85
2023-03-02T23:39:10.248Z,7.80
2023-03-02T23:41:38.707Z,7.13
2023-03-02T23:44:07.187Z,7.93
2023-03-02T23:46:34.375Z,8.73
2023-03-02T23:49:01.358Z,8.60
2023-03-02T23:51:28.186Z,8.30
2023-03-02T23:53:55.109Z,8.18
2023-03-02T23:56:22.800Z,7.68
2023-03-02T23:58:49.884Z,8.73
